sensor_id;sensor_type;location;lat;lon;timestamp;pressure;altitude;pressure_sealevel;temperature;humidity
37298;BME280;30517;51.932;4.278;2023-05-10T00:00:01;100729.56;;;15.74;60.38
37298;BME280;30517;51.932;4.278;2023-05-10T00:02:42;100829.19;;;16.32;60.72
37298;BME280;30517;51.932;4.278;2023-05-10T00:05:23;100858.06;;;16.48;60.51
37298;BME280;30517;51.932;4.278;2023-05-10T00:08:04;100834.31;;;16.38;60.57
37298;BME280;30517;51.932;4.278;2023-05-10T00:10:45;100845.81;;;16.41;60.39
37298;BME280;30517;51.932;4.278;2023-05-10T00:13:26;100836.22;;;16.35;60.09
37298;BME280;30517;51.932;4.278;2023-05-10T00:16:07;100858.16;;;16.45;60.36
37298;BME280;30517;51.932;4.278;2023-05-10T00:18:48;100855.75;;;16.34;60.32
37298;BME280;30517;51.932;4.278;2023-05-10T00:21:29;100776.84;;;15.99;60.72
37298;BME280;30517;51.932;4.278;2023-05-10T00:24:09;100852.88;;;16.42;60.66
37298;BME280;30517;51.932;4.278;2023-05-10T00:26:50;100856.47;;;16.41;60.36
37298;BME280;30517;51.932;4.278;2023-05-10T00:29:31;100838.94;;;16.32;60.03
37298;BME280;30517;51.932;4.278;2023-05-10T00:32:13;100815.56;;;16.10;60.72
37298;BME280;30517;51.932;4.278;2023-05-10T00:34:54;100845.16;;;16.31;60.01
37298;BME280;30517;51.932;4.278;2023-05-10T00:37:34;100869.84;;;16.37;60.77
37298;BME280;30517;51.932;4.278;2023-05-10T00:40:15;100866.34;;;16.35;60.11
37298;BME280;30517;51.932;4.278;2023-05-10T00:42:57;100868.19;;;16.33;60.32
37298;BME280;30517;51.932;4.278;2023-05-10T00:45:40;100867.28;;;16.34;60.29
37298;BME280;30517;51.932;4.278;2023-05-10T00:48:21;100820.13;;;16.04;60.63
37298;BME280;30517;51.932;4.278;2023-05-10T00:51:03;100861.31;;;16.25;60.58
37298;BME280;30517;51.932;4.278;2023-05-10T00:53:45;100873.63;;;16.29;60.08
37298;BME280;30517;51.932;4.278;2023-05-10T00:56:26;100869.34;;;16.23;60.77
37298;BME280;30517;51.932;4.278;2023-05-10T00:59:09;100879.84;;;16.29;60.31
37298;BME280;30517;51.932;4.278;2023-05-10T01:01:50;100856.25;;;16.14;60.26
37298;BME280;30517;51.932;4.278;2023-05-10T01:04:31;100858.97;;;16.12;60.34
37298;BME280;30517;51.932;4.278;2023-05-10T01:07:12;100879.91;;;16.26;60.35
37298;BME280;30517;51.932;4.278;2023-05-10T01:09:53;100887.91;;;16.25;60.06
37298;BME280;30517;51.932;4.278;2023-05-10T01:12:37;100859.88;;;16.11;60.56
37298;BME280;30517;51.932;4.278;2023-05-10T01:15:20;100878.22;;;16.22;60.79
37298;BME280;30517;51.932;4.278;2023-05-10T01:18:01;100821.66;;;15.80;60.20
37298;BME280;30517;51.932;4.278;2023-05-10T01:20:46;100873.31;;;16.07;60.25
37298;BME280;30517;51.932;4.278;2023-05-10T01:27:10;100878.63;;;16.07;60.46
37298;BME280;30517;51.932;4.278;2023-05-10T01:33:01;100897.94;;;16.15;60.22
37298;BME280;30517;51.932;4.278;2023-05-10T01:35:47;100902.34;;;16.14;60.19
37298;BME280;30517;51.932;4.278;2023-05-10T01:38:39;100877.88;;;16.00;60.07
37298;BME280;30517;51.932;4.278;2023-05-10T01:45:02;100899.75;;;16.13;60.65
37298;BME280;30517;51.932;4.278;2023-05-10T01:48:05;100911.34;;;16.10;60.44
37298;BME280;30517;51.932;4.278;2023-05-10T01:50:47;100886.88;;;15.95;60.19
37298;BME280;30517;51.932;4.278;2023-05-10T01:53:29;100897.34;;;16.02;60.57
37298;BME280;30517;51.932;4.278;2023-05-10T01:56:12;100915.81;;;16.10;60.47
37298;BME280;30517;51.932;4.278;2023-05-10T01:58:55;100909.59;;;16.09;59.92
37298;BME280;30517;51.932;4.278;2023-05-10T02:01:37;100900.91;;;16.01;60.47
37298;BME280;30517;51.932;4.278;2023-05-10T02:04:19;100914.03;;;16.09;60.07
37298;BME280;30517;51.932;4.278;2023-05-10T02:07:03;100931.00;;;16.03;60.36
37298;BME280;30517;51.932;4.278;2023-05-10T02:09:45;100903.63;;;16.00;60.63
37298;BME280;30517;51.932;4.278;2023-05-10T02:12:30;100912.28;;;16.08;60.39
37298;BME280;30517;51.932;4.278;2023-05-10T02:15:15;100884.47;;;15.85;60.61
37298;BME280;30517;51.932;4.278;2023-05-10T02:18:00;100906.22;;;16.01;60.78
37298;BME280;30517;51.932;4.278;2023-05-10T02:20:46;100917.69;;;16.05;60.52
37298;BME280;30517;51.932;4.278;2023-05-10T02:23:28;100920.34;;;16.05;60.64
37298;BME280;30517;51.932;4.278;2023-05-10T02:26:10;100900.34;;;15.88;60.50
37298;BME280;30517;51.932;4.278;2023-05-10T02:28:53;100923.88;;;16.05;60.43
37298;BME280;30517;51.932;4.278;2023-05-10T02:31:35;100887.16;;;15.82;60.24
37298;BME280;30517;51.932;4.278;2023-05-10T02:34:16;100927.47;;;16.04;60.08
37298;BME280;30517;51.932;4.278;2023-05-10T02:36:58;100925.69;;;16.03;60.13
37298;BME280;30517;51.932;4.278;2023-05-10T02:39:41;100881.16;;;15.74;60.50
37298;BME280;30517;51.932;4.278;2023-05-10T02:42:26;100859.38;;;15.55;59.82
37298;BME280;30517;51.932;4.278;2023-05-10T02:45:12;100943.44;;;16.03;59.88
37298;BME280;30517;51.932;4.278;2023-05-10T02:47:54;100940.75;;;16.04;60.43
37298;BME280;30517;51.932;4.278;2023-05-10T02:50:36;100946.97;;;16.03;59.76
37298;BME280;30517;51.932;4.278;2023-05-10T02:53:31;100943.53;;;15.98;60.29
37298;BME280;30517;51.932;4.278;2023-05-10T02:56:19;100939.94;;;16.01;60.07
37298;BME280;30517;51.932;4.278;2023-05-10T02:59:05;100929.69;;;15.85;59.86
37298;BME280;30517;51.932;4.278;2023-05-10T03:01:46;100926.16;;;15.83;59.94
37298;BME280;30517;51.932;4.278;2023-05-10T03:04:26;100949.78;;;15.99;60.20
37298;BME280;30517;51.932;4.278;2023-05-10T03:07:07;100941.97;;;15.91;59.99
37298;BME280;30517;51.932;4.278;2023-05-10T03:09:49;100947.97;;;15.99;60.28
37298;BME280;30517;51.932;4.278;2023-05-10T03:15:41;100944.44;;;15.99;59.92
37298;BME280;30517;51.932;4.278;2023-05-10T03:18:28;100942.72;;;15.96;60.04
37298;BME280;30517;51.932;4.278;2023-05-10T03:21:11;100931.44;;;15.85;60.18
37298;BME280;30517;51.932;4.278;2023-05-10T03:24:00;100951.56;;;15.97;60.00
37298;BME280;30517;51.932;4.278;2023-05-10T03:26:46;100920.94;;;15.79;60.39
37298;BME280;30517;51.932;4.278;2023-05-10T03:29:29;100954.25;;;15.97;59.46
37298;BME280;30517;51.932;4.278;2023-05-10T03:32:10;100946.34;;;15.92;59.66
37298;BME280;30517;51.932;4.278;2023-05-10T03:34:51;100894.72;;;15.60;60.40
37298;BME280;30517;51.932;4.278;2023-05-10T03:37:32;100952.59;;;15.91;60.53
37298;BME280;30517;51.932;4.278;2023-05-10T03:40:13;100942.97;;;15.85;60.20
37298;BME280;30517;51.932;4.278;2023-05-10T03:42:54;100902.81;;;15.56;59.81
37298;BME280;30517;51.932;4.278;2023-05-10T03:45:35;100948.06;;;15.95;60.32
37298;BME280;30517;51.932;4.278;2023-05-10T03:48:16;100913.16;;;15.68;59.78
37298;BME280;30517;51.932;4.278;2023-05-10T03:50:57;100935.94;;;15.83;59.55
37298;BME280;30517;51.932;4.278;2023-05-10T03:53:38;100946.44;;;15.87;59.92
37298;BME280;30517;51.932;4.278;2023-05-10T03:56:18;100968.47;;;15.94;60.53
37298;BME280;30517;51.932;4.278;2023-05-10T03:59:00;100969.38;;;15.93;60.07
37298;BME280;30517;51.932;4.278;2023-05-10T04:01:41;100973.81;;;15.94;60.27
37298;BME280;30517;51.932;4.278;2023-05-10T04:04:27;100942.28;;;15.77;60.11
37298;BME280;30517;51.932;4.278;2023-05-10T04:07:08;100970.28;;;15.93;60.01
37298;BME280;30517;51.932;4.278;2023-05-10T04:09:50;100942.44;;;15.69;60.43
37298;BME280;30517;51.932;4.278;2023-05-10T04:12:31;100983.53;;;15.95;59.82
37298;BME280;30517;51.932;4.278;2023-05-10T04:15:12;100979.13;;;15.94;59.68
37298;BME280;30517;51.932;4.278;2023-05-10T04:17:53;100984.44;;;15.94;59.84
37298;BME280;30517;51.932;4.278;2023-05-10T04:20:33;100951.19;;;15.75;60.03
37298;BME280;30517;51.932;4.278;2023-05-10T04:23:14;100947.69;;;15.73;60.12
37298;BME280;30517;51.932;4.278;2023-05-10T04:26:00;100968.66;;;15.85;60.01
37298;BME280;30517;51.932;4.278;2023-05-10T04:28:41;100959.03;;;15.79;60.10
37298;BME280;30517;51.932;4.278;2023-05-10T04:31:22;100983.59;;;15.92;59.91
37298;BME280;30517;51.932;4.278;2023-05-10T04:34:03;100960.94;;;15.74;59.93
37298;BME280;30517;51.932;4.278;2023-05-10T04:36:44;100941.56;;;15.66;61.25
37298;BME280;30517;51.932;4.278;2023-05-10T04:39:25;100953.88;;;15.73;61.12
37298;BME280;30517;51.932;4.278;2023-05-10T04:42:06;100981.09;;;15.84;60.62
37298;BME280;30517;51.932;4.278;2023-05-10T04:44:47;100977.59;;;15.82;60.36
37298;BME280;30517;51.932;4.278;2023-05-10T04:47:27;100994.31;;;15.89;59.91
37298;BME280;30517;51.932;4.278;2023-05-10T04:50:08;100915.59;;;15.38;60.06
37298;BME280;30517;51.932;4.278;2023-05-10T04:52:50;100994.28;;;15.90;60.87
37298;BME280;30517;51.932;4.278;2023-05-10T04:55:31;100997.84;;;15.89;60.17
37298;BME280;30517;51.932;4.278;2023-05-10T04:58:12;100969.03;;;15.69;60.36
37298;BME280;30517;51.932;4.278;2023-05-10T05:00:53;101011.13;;;15.91;60.40
37298;BME280;30517;51.932;4.278;2023-05-10T05:03:33;101001.50;;;15.85;59.97
37298;BME280;30517;51.932;4.278;2023-05-10T05:06:14;101006.91;;;15.79;62.06
37298;BME280;30517;51.932;4.278;2023-05-10T05:10:23;101016.78;;;15.74;63.36
37298;BME280;30517;51.932;4.278;2023-05-10T05:13:04;101016.78;;;15.74;62.66
37298;BME280;30517;51.932;4.278;2023-05-10T05:15:45;101014.09;;;15.76;62.14
37298;BME280;30517;51.932;4.278;2023-05-10T05:18:26;101026.47;;;15.78;61.66
37298;BME280;30517;51.932;4.278;2023-05-10T05:21:16;101026.47;;;15.78;61.72
37298;BME280;30517;51.932;4.278;2023-05-10T05:23:57;101030.84;;;15.79;61.74
37298;BME280;30517;51.932;4.278;2023-05-10T05:26:38;101007.31;;;15.58;61.61
37298;BME280;30517;51.932;4.278;2023-05-10T05:29:19;101021.22;;;15.74;61.93
37298;BME280;30517;51.932;4.278;2023-05-10T05:32:00;101036.16;;;15.79;61.68
37298;BME280;30517;51.932;4.278;2023-05-10T05:34:41;101006.31;;;15.65;61.59
37298;BME280;30517;51.932;4.278;2023-05-10T05:37:22;101001.19;;;15.56;61.37
37298;BME280;30517;51.932;4.278;2023-05-10T05:40:03;101008.09;;;15.64;61.81
37298;BME280;30517;51.932;4.278;2023-05-10T05:42:44;101035.34;;;15.77;61.30
37298;BME280;30517;51.932;4.278;2023-05-10T05:45:24;101035.34;;;15.77;61.65
37298;BME280;30517;51.932;4.278;2023-05-10T05:48:05;101031.78;;;15.77;61.38
37298;BME280;30517;51.932;4.278;2023-05-10T05:50:46;101030.13;;;15.71;61.55
37298;BME280;30517;51.932;4.278;2023-05-10T05:53:27;101027.47;;;15.73;61.67
37298;BME280;30517;51.932;4.278;2023-05-10T05:56:10;101024.91;;;15.65;61.31
37298;BME280;30517;51.932;4.278;2023-05-10T05:58:51;101011.69;;;15.62;61.21
37298;BME280;30517;51.932;4.278;2023-05-10T06:01:32;101038.88;;;15.78;61.67
37298;BME280;30517;51.932;4.278;2023-05-10T06:04:13;101046.00;;;15.77;61.70
37298;BME280;30517;51.932;4.278;2023-05-10T06:06:53;101038.91;;;15.76;61.55
37298;BME280;30517;51.932;4.278;2023-05-10T06:09:34;101043.34;;;15.76;61.32
37298;BME280;30517;51.932;4.278;2023-05-10T06:12:15;101051.31;;;15.77;60.99
37298;BME280;30517;51.932;4.278;2023-05-10T06:14:56;101064.59;;;15.77;61.56
37298;BME280;30517;51.932;4.278;2023-05-10T06:17:37;101039.06;;;15.67;60.66
37298;BME280;30517;51.932;4.278;2023-05-10T06:20:18;101053.91;;;15.79;61.26
37298;BME280;30517;51.932;4.278;2023-05-10T06:22:59;101050.53;;;15.70;61.40
37298;BME280;30517;51.932;4.278;2023-05-10T06:25:40;101055.72;;;15.78;61.17
37298;BME280;30517;51.932;4.278;2023-05-10T06:28:21;101058.38;;;15.78;61.43
37298;BME280;30517;51.932;4.278;2023-05-10T06:31:05;101056.63;;;15.77;60.78
37298;BME280;30517;51.932;4.278;2023-05-10T06:33:46;101014.59;;;15.49;61.29
37298;BME280;30517;51.932;4.278;2023-05-10T06:36:27;101066.38;;;15.77;61.06
37298;BME280;30517;51.932;4.278;2023-05-10T06:39:08;101065.44;;;15.79;60.48
37298;BME280;30517;51.932;4.278;2023-05-10T06:41:49;101036.56;;;15.59;60.67
37298;BME280;30517;51.932;4.278;2023-05-10T06:44:29;101020.00;;;15.45;60.00
37298;BME280;30517;51.932;4.278;2023-05-10T06:47:10;101069.06;;;15.75;60.16
37298;BME280;30517;51.932;4.278;2023-05-10T06:49:51;101057.66;;;15.70;59.86
37298;BME280;30517;51.932;4.278;2023-05-10T06:52:32;101049.78;;;15.64;60.24
37298;BME280;30517;51.932;4.278;2023-05-10T06:55:12;101048.94;;;15.60;59.93
37298;BME280;30517;51.932;4.278;2023-05-10T06:57:53;101051.59;;;15.60;60.02
37298;BME280;30517;51.932;4.278;2023-05-10T07:00:34;101051.56;;;15.62;60.27
37298;BME280;30517;51.932;4.278;2023-05-10T07:03:19;101013.91;;;15.40;60.00
37298;BME280;30517;51.932;4.278;2023-05-10T07:06:01;101052.44;;;15.62;60.68
37298;BME280;30517;51.932;4.278;2023-05-10T07:08:43;101045.47;;;15.57;59.89
37298;BME280;30517;51.932;4.278;2023-05-10T07:11:24;101084.97;;;15.78;60.43
37298;BME280;30517;51.932;4.278;2023-05-10T07:14:04;101082.31;;;15.77;60.33
37298;BME280;30517;51.932;4.278;2023-05-10T07:16:45;101044.63;;;15.55;60.18
37298;BME280;30517;51.932;4.278;2023-05-10T07:19:27;101084.97;;;15.78;60.40
37298;BME280;30517;51.932;4.278;2023-05-10T07:22:09;101089.38;;;15.79;60.20
37298;BME280;30517;51.932;4.278;2023-05-10T07:24:50;101063.16;;;15.59;60.51
37298;BME280;30517;51.932;4.278;2023-05-10T07:27:31;101098.25;;;15.80;60.57
37298;BME280;30517;51.932;4.278;2023-05-10T07:30:12;101090.28;;;15.78;61.06
37298;BME280;30517;51.932;4.278;2023-05-10T07:32:54;101098.13;;;15.86;60.85
37298;BME280;30517;51.932;4.278;2023-05-10T07:35:35;101098.97;;;15.88;61.00
37298;BME280;30517;51.932;4.278;2023-05-10T07:38:16;101053.31;;;15.63;60.96
37298;BME280;30517;51.932;4.278;2023-05-10T07:40:57;101103.31;;;15.92;61.18
37298;BME280;30517;51.932;4.278;2023-05-10T07:43:38;101062.16;;;15.65;60.73
37298;BME280;30517;51.932;4.278;2023-05-10T07:46:19;101076.19;;;15.73;60.96
37298;BME280;30517;51.932;4.278;2023-05-10T07:49:00;101108.56;;;15.95;61.28
37298;BME280;30517;51.932;4.278;2023-05-10T07:51:41;101095.25;;;15.97;61.26
37298;BME280;30517;51.932;4.278;2023-05-10T07:54:24;101100.50;;;16.00;61.09
37298;BME280;30517;51.932;4.278;2023-05-10T07:57:05;101084.78;;;15.87;61.35
37298;BME280;30517;51.932;4.278;2023-05-10T07:59:46;101105.75;;;16.03;61.28
37298;BME280;30517;51.932;4.278;2023-05-10T08:02:27;101106.59;;;16.05;61.47
37298;BME280;30517;51.932;4.278;2023-05-10T08:05:08;101116.31;;;16.06;61.26
37298;BME280;30517;51.932;4.278;2023-05-10T08:07:49;101105.00;;;15.96;61.45
37298;BME280;30517;51.932;4.278;2023-05-10T08:10:30;101073.31;;;15.85;61.06
37298;BME280;30517;51.932;4.278;2023-05-10T08:13:11;101079.44;;;15.89;60.81
37298;BME280;30517;51.932;4.278;2023-05-10T08:15:52;101114.44;;;16.11;61.29
37298;BME280;30517;51.932;4.278;2023-05-10T08:18:33;101075.06;;;15.86;61.44
37298;BME280;30517;51.932;4.278;2023-05-10T08:21:14;101129.47;;;16.13;61.21
37298;BME280;30517;51.932;4.278;2023-05-10T08:23:55;101091.78;;;15.91;61.12
37298;BME280;30517;51.932;4.278;2023-05-10T08:26:36;101117.19;;;16.08;61.04
37298;BME280;30517;51.932;4.278;2023-05-10T08:29:17;101123.22;;;16.16;60.86
37298;BME280;30517;51.932;4.278;2023-05-10T08:31:58;101110.13;;;16.05;60.80
37298;BME280;30517;51.932;4.278;2023-05-10T08:34:38;101115.38;;;16.10;61.15
37298;BME280;30517;51.932;4.278;2023-05-10T08:37:19;101095.25;;;15.97;60.53
37298;BME280;30517;51.932;4.278;2023-05-10T08:40:00;101123.22;;;16.16;60.66
37298;BME280;30517;51.932;4.278;2023-05-10T08:42:47;101126.78;;;16.15;60.83
37298;BME280;30517;51.932;4.278;2023-05-10T08:45:33;101127.75;;;16.12;60.83
37298;BME280;30517;51.932;4.278;2023-05-10T08:48:17;101153.13;;;16.27;60.95
37298;BME280;30517;51.932;4.278;2023-05-10T08:51:00;101139.16;;;16.18;60.49
37298;BME280;30517;51.932;4.278;2023-05-10T08:53:42;101171.75;;;16.29;60.51
37298;BME280;30517;51.932;4.278;2023-05-10T08:56:23;101156.78;;;16.23;60.76
37298;BME280;30517;51.932;4.278;2023-05-10T08:59:04;101175.22;;;16.31;60.85
37298;BME280;30517;51.932;4.278;2023-05-10T09:01:45;101143.69;;;16.12;60.54
37298;BME280;30517;51.932;4.278;2023-05-10T09:04:29;101169.97;;;16.29;60.42
37298;BME280;30517;51.932;4.278;2023-05-10T09:07:11;101134.06;;;16.07;60.26
37298;BME280;30517;51.932;4.278;2023-05-10T09:09:53;101167.44;;;16.23;60.35
37298;BME280;30517;51.932;4.278;2023-05-10T09:12:35;101183.19;;;16.34;60.95
37298;BME280;30517;51.932;4.278;2023-05-10T09:15:16;101186.66;;;16.37;60.49
37298;BME280;30517;51.932;4.278;2023-05-10T09:17:59;101101.63;;;15.88;60.05
37298;BME280;30517;51.932;4.278;2023-05-10T09:20:45;101179.66;;;16.32;60.74
37298;BME280;30517;51.932;4.278;2023-05-10T09:23:26;101174.28;;;16.33;60.51
37298;BME280;30517;51.932;4.278;2023-05-10T09:26:15;101186.63;;;16.39;60.77
37298;BME280;30517;51.932;4.278;2023-05-10T09:28:59;101191.91;;;16.41;60.37
37298;BME280;30517;51.932;4.278;2023-05-10T09:31:49;101198.03;;;16.44;60.74
37298;BME280;30517;51.932;4.278;2023-05-10T09:34:34;101207.78;;;16.45;60.84
37298;BME280;30517;51.932;4.278;2023-05-10T09:37:29;101198.03;;;16.46;60.96
37298;BME280;30517;51.932;4.278;2023-05-10T09:40:21;101200.66;;;16.47;61.46
37298;BME280;30517;51.932;4.278;2023-05-10T09:43:09;101165.66;;;16.22;60.87
37298;BME280;30517;51.932;4.278;2023-05-10T09:45:51;101213.91;;;16.49;61.04
37298;BME280;30517;51.932;4.278;2023-05-10T09:48:31;101179.75;;;16.27;61.40
37298;BME280;30517;51.932;4.278;2023-05-10T09:51:22;101205.00;;;16.50;60.99
37298;BME280;30517;51.932;4.278;2023-05-10T09:54:11;101211.19;;;16.52;60.73
37298;BME280;30517;51.932;4.278;2023-05-10T09:56:52;101220.03;;;16.54;60.54
37298;BME280;30517;51.932;4.278;2023-05-10T09:59:33;101209.53;;;16.48;60.55
37298;BME280;30517;51.932;4.278;2023-05-10T10:02:15;101202.56;;;16.41;60.67
37298;BME280;30517;51.932;4.278;2023-05-10T10:04:56;101234.19;;;16.56;60.51
37298;BME280;30517;51.932;4.278;2023-05-10T10:07:37;101237.72;;;16.58;60.47
37298;BME280;30517;51.932;4.278;2023-05-10T10:10:18;101233.22;;;16.60;60.63
37298;BME280;30517;51.932;4.278;2023-05-10T10:12:59;101235.00;;;16.59;60.63
37298;BME280;30517;51.932;4.278;2023-05-10T10:15:42;101097.34;;;15.79;60.58
37298;BME280;30517;51.932;4.278;2023-05-10T10:18:23;101239.38;;;16.62;60.33
37298;BME280;30517;51.932;4.278;2023-05-10T10:21:07;101213.97;;;16.47;60.40
37298;BME280;30517;51.932;4.278;2023-05-10T10:23:49;101242.84;;;16.67;60.81
37298;BME280;30517;51.932;4.278;2023-05-10T10:26:30;101244.66;;;16.65;61.40
37298;BME280;30517;51.932;4.278;2023-05-10T10:29:47;101241.13;;;16.63;60.75
37298;BME280;30517;51.932;4.278;2023-05-10T10:33:01;101197.22;;;16.41;60.72
37298;BME280;30517;51.932;4.278;2023-05-10T10:35:48;101237.44;;;16.70;60.61
37298;BME280;30517;51.932;4.278;2023-05-10T10:41:49;101238.28;;;16.72;60.28
37298;BME280;30517;51.932;4.278;2023-05-10T10:50:04;101241.72;;;16.79;60.23
37298;BME280;30517;51.932;4.278;2023-05-10T10:52:45;101244.38;;;16.80;59.70
37298;BME280;30517;51.932;4.278;2023-05-10T10:55:29;101247.03;;;16.80;59.88
37298;BME280;30517;51.932;4.278;2023-05-10T10:58:10;101232.13;;;16.70;59.99
37298;BME280;30517;51.932;4.278;2023-05-10T11:01:10;101253.22;;;16.81;59.96
37298;BME280;30517;51.932;4.278;2023-05-10T11:06:38;101238.25;;;16.74;59.68
37298;BME280;30517;51.932;4.278;2023-05-10T11:09:24;101242.63;;;16.76;59.70
37298;BME280;30517;51.932;4.278;2023-05-10T11:12:08;101257.53;;;16.87;60.02
37298;BME280;30517;51.932;4.278;2023-05-10T11:14:50;101226.72;;;16.73;59.71
37298;BME280;30517;51.932;4.278;2023-05-10T11:17:31;101261.91;;;16.91;59.75
37298;BME280;30517;51.932;4.278;2023-05-10T11:20:14;101133.66;;;16.25;60.00
37298;BME280;30517;51.932;4.278;2023-05-10T11:22:55;101258.25;;;16.95;59.95
37298;BME280;30517;51.932;4.278;2023-05-10T11:25:41;101240.66;;;16.88;60.03
37298;BME280;30517;51.932;4.278;2023-05-10T11:28:22;101238.97;;;16.84;60.15
37298;BME280;30517;51.932;4.278;2023-05-10T11:31:03;101248.59;;;16.89;60.02
37298;BME280;30517;51.932;4.278;2023-05-10T11:33:45;101244.06;;;16.93;60.38
37298;BME280;30517;51.932;4.278;2023-05-10T11:36:33;101228.31;;;16.84;59.83
37298;BME280;30517;51.932;4.278;2023-05-10T11:39:14;101259.00;;;17.01;59.79
37298;BME280;30517;51.932;4.278;2023-05-10T11:41:56;101263.28;;;17.09;60.27
37298;BME280;30517;51.932;4.278;2023-05-10T11:44:37;101243.06;;;16.98;60.07
37298;BME280;30517;51.932;4.278;2023-05-10T11:47:22;101264.97;;;17.13;59.88
37298;BME280;30517;51.932;4.278;2023-05-10T11:50:03;101263.25;;;17.10;59.85
37298;BME280;30517;51.932;4.278;2023-05-10T11:52:44;101243.91;;;17.02;60.02
37298;BME280;30517;51.932;4.278;2023-05-10T11:55:25;101250.94;;;17.05;59.93
37298;BME280;30517;51.932;4.278;2023-05-10T11:58:06;101269.22;;;17.21;59.71
37298;BME280;30517;51.932;4.278;2023-05-10T12:00:47;101250.81;;;17.09;59.85
37298;BME280;30517;51.932;4.278;2023-05-10T12:03:28;101273.56;;;17.25;59.89
37298;BME280;30517;51.932;4.278;2023-05-10T12:06:09;101257.91;;;17.10;59.94
37298;BME280;30517;51.932;4.278;2023-05-10T12:08:50;101271.72;;;17.28;59.81
37298;BME280;30517;51.932;4.278;2023-05-10T12:11:37;101250.63;;;17.18;59.95
37298;BME280;30517;51.932;4.278;2023-05-10T12:14:21;101276.09;;;17.32;59.83
37298;BME280;30517;51.932;4.278;2023-05-10T12:17:02;101282.28;;;17.34;60.01
37298;BME280;30517;51.932;4.278;2023-05-10T12:19:43;101271.72;;;17.28;59.67
37298;BME280;30517;51.932;4.278;2023-05-10T12:22:24;101292.00;;;17.36;59.91
37298;BME280;30517;51.932;4.278;2023-05-10T12:25:05;101247.09;;;17.16;59.61
37298;BME280;30517;51.932;4.278;2023-05-10T12:27:57;101273.25;;;17.38;59.97
37298;BME280;30517;51.932;4.278;2023-05-10T12:30:38;101279.44;;;17.40;59.71
37298;BME280;30517;51.932;4.278;2023-05-10T12:33:19;101284.72;;;17.41;59.71
37298;BME280;30517;51.932;4.278;2023-05-10T12:36:00;101280.28;;;17.42;60.04
37298;BME280;30517;51.932;4.278;2023-05-10T12:38:42;101282.03;;;17.44;59.45
37298;BME280;30517;51.932;4.278;2023-05-10T12:41:23;101290.84;;;17.46;59.73
37298;BME280;30517;51.932;4.278;2023-05-10T12:44:05;101283.84;;;17.41;59.60
37298;BME280;30517;51.932;4.278;2023-05-10T12:46:46;101260.94;;;17.34;59.65
37298;BME280;30517;51.932;4.278;2023-05-10T12:49:26;101289.00;;;17.50;59.71
37298;BME280;30517;51.932;4.278;2023-05-10T12:52:07;101263.53;;;17.37;59.58
37298;BME280;30517;51.932;4.278;2023-05-10T12:54:48;101261.69;;;17.39;59.71
37298;BME280;30517;51.932;4.278;2023-05-10T12:57:29;101270.50;;;17.42;59.44
37298;BME280;30517;51.932;4.278;2023-05-10T13:00:11;101308.56;;;17.49;59.60
37298;BME280;30517;51.932;4.278;2023-05-10T13:02:51;101245.06;;;17.28;59.75
37298;BME280;30517;51.932;4.278;2023-05-10T13:05:33;101290.72;;;17.53;59.87
37298;BME280;30517;51.932;4.278;2023-05-10T13:08:14;101298.47;;;17.62;59.84
37298;BME280;30517;51.932;4.278;2023-05-10T13:10:55;101265.16;;;17.42;59.90
37298;BME280;30517;51.932;4.278;2023-05-10T13:13:36;101298.41;;;17.65;59.74
37298;BME280;30517;51.932;4.278;2023-05-10T13:16:17;101287.88;;;17.59;59.88
37298;BME280;30517;51.932;4.278;2023-05-10T13:18:57;101288.84;;;17.56;60.01
37298;BME280;30517;51.932;4.278;2023-05-10T13:21:38;101306.38;;;17.66;60.33
37298;BME280;30517;51.932;4.278;2023-05-10T13:24:20;101310.56;;;17.77;59.55
37298;BME280;30517;51.932;4.278;2023-05-10T13:27:01;101313.19;;;17.78;59.94
37298;BME280;30517;51.932;4.278;2023-05-10T13:29:42;101307.81;;;17.81;60.38
37298;BME280;30517;51.932;4.278;2023-05-10T13:32:23;101291.13;;;17.72;60.09
37298;BME280;30517;51.932;4.278;2023-05-10T13:35:04;101302.38;;;17.84;59.83
37298;BME280;30517;51.932;4.278;2023-05-10T13:37:45;101304.97;;;17.87;59.76
37298;BME280;30517;51.932;4.278;2023-05-10T13:40:26;101303.31;;;17.83;59.98
37298;BME280;30517;51.932;4.278;2023-05-10T13:43:08;101313.75;;;17.92;59.83
37298;BME280;30517;51.932;4.278;2023-05-10T13:45:49;101328.88;;;17.94;60.07
37298;BME280;30517;51.932;4.278;2023-05-10T13:48:29;101268.03;;;17.70;60.00
37298;BME280;30517;51.932;4.278;2023-05-10T13:51:10;101298.75;;;17.88;59.80
37298;BME280;30517;51.932;4.278;2023-05-10T13:53:51;101316.31;;;17.97;59.60
37298;BME280;30517;51.932;4.278;2023-05-10T13:56:32;101303.91;;;17.95;59.93
37298;BME280;30517;51.932;4.278;2023-05-10T13:59:13;101297.78;;;17.91;59.68
37298;BME280;30517;51.932;4.278;2023-05-10T14:01:54;101309.06;;;18.02;59.79
37298;BME280;30517;51.932;4.278;2023-05-10T14:04:35;101319.56;;;18.10;60.27
37298;BME280;30517;51.932;4.278;2023-05-10T14:07:15;101295.81;;;17.99;59.83
37298;BME280;30517;51.932;4.278;2023-05-10T14:09:56;101318.63;;;18.11;59.98
37298;BME280;30517;51.932;4.278;2023-05-10T14:12:37;101315.84;;;18.16;60.18
37298;BME280;30517;51.932;4.278;2023-05-10T14:15:18;101321.34;;;18.09;59.92
37298;BME280;30517;51.932;4.278;2023-05-10T14:17:59;101315.78;;;18.17;59.72
37298;BME280;30517;51.932;4.278;2023-05-10T14:20:39;101310.59;;;18.12;59.67
37298;BME280;30517;51.932;4.278;2023-05-10T14:23:21;101313.97;;;18.19;59.87
37298;BME280;30517;51.932;4.278;2023-05-10T14:26:06;101296.41;;;18.10;59.65
37298;BME280;30517;51.932;4.278;2023-05-10T14:28:47;101268.25;;;17.99;59.73
37298;BME280;30517;51.932;4.278;2023-05-10T14:31:28;101305.00;;;18.22;59.57
37298;BME280;30517;51.932;4.278;2023-05-10T14:34:10;101293.41;;;18.23;59.38